Voyager Of The Seas — C6SE5 — position and weather

sailwx.info

Track history (hours):
 
Tides and Currents Weather Stations Pressure Air Temp Water Temp Dewpoint Dewpoint Depression Visibility Wind Speed Wind Dir Waves Ship Positions

Voyager Of The Seas

Operator: Royal Caribbean Cruises Ltd

Last reported at 2015-Mar-28 14:33 UTC. Time now 2015-Apr-02 07:53 UTC.
Position S 35°30' E 136°54'.

Type: Passenger vessel. MMSI: 311317000.

Date/timePositionNaut miles runAvg speedWind from/ knotsBaromVisibWave heightAir tempDewpointWater temp
2015-Mar-28 14:33S 35°30' E 136°54'2419.3
2015-Mar-28 13:17S 35°26' E 137°23'1419.2
2015-Mar-28 12:33S 35°23' E 137°40'1918.9
2015-Mar-28 11:33S 35°15' E 138°01'1918.7
2015-Mar-28 10:33S 34°59' E 138°14'1515.0
2015-Mar-28 09:33S 34°47' E 138°24'4 3.6
2015-Mar-28 08:29S 34°47' E 138°29'0 0.0
2015-Mar-28 07:29S 34°47' E 138°29'0 0.0
2015-Mar-28 06:32S 34°47' E 138°29'0 0.0
2015-Mar-28 05:32S 34°47' E 138°29'0 0.0
2015-Mar-28 04:29S 34°47' E 138°29'0 0.0
2015-Mar-28 03:23S 34°47' E 138°29'0 0.0
2015-Mar-28 02:14S 34°47' E 138°29'0 0.0
2015-Mar-28 01:26S 34°47' E 138°29'0 0.0
2015-Mar-28 00:20S 34°47' E 138°29'0 0.0
2015-Mar-27 23:32S 34°47' E 138°29'0 0.0
2015-Mar-27 22:32S 34°47' E 138°29'0 0.0
2015-Mar-27 21:32S 34°47' E 138°29'1 1.5
2015-Mar-27 20:33S 34°47' E 138°27'1010.2
2015-Mar-27 19:33S 34°54' E 138°17'1616.0
2015-Mar-27 18:33S 35°07' E 138°08'1616.2
2015-Mar-27 17:33S 35°23' E 138°02'25215.4
2015-Mar-27 01:09S 38°23' E 141°44'1118.6
2015-Mar-27 00:32S 38°31' E 141°54'2020.0
2015-Mar-26 23:33S 38°44' E 142°12'1717.4
2015-Mar-26 22:33S 38°53' E 142°31'143 4.2
2015-Mar-25 12:16S 39°12' E 145°34'1419.0
2015-Mar-25 11:33S 39°20' E 145°48'1919.0
2015-Mar-25 10:33S 39°32' E 146°08'1918.6
2015-Mar-25 09:34S 39°43' E 146°27'12322.9
2015-Mar-25 04:10S 40°53' E 148°40'2739.9
2015-Mar-25 03:29S 41°00' E 149°15'30 9.3
2015-Mar-25 00:14S 41°08' E 149°53'4614.8
2015-Mar-24 21:08S 41°20' E 150°53'  
Track history (hours):
 
Tides and Currents Weather Stations Pressure Air Temp Water Temp Dewpoint Dewpoint Depression Visibility Wind Speed Wind Dir Waves Ship Positions

Voyager Of The Seas

Operator: Royal Caribbean Cruises Ltd

Last reported at 2015-Mar-28 14:33 UTC. Time now 2015-Apr-02 07:53 UTC.
Position S 35°30' E 136°54'.

Type: Passenger vessel. MMSI: 311317000.

Date/timePositionNaut miles runAvg speedWind from/ knotsBaromVisibWave heightAir tempDewpointWater temp
2015-Mar-28 14:33S 35°30' E 136°54'2419.3
2015-Mar-28 13:17S 35°26' E 137°23'1419.2
2015-Mar-28 12:33S 35°23' E 137°40'1918.9
2015-Mar-28 11:33S 35°15' E 138°01'1918.7
2015-Mar-28 10:33S 34°59' E 138°14'1515.0
2015-Mar-28 09:33S 34°47' E 138°24'4 3.6
2015-Mar-28 08:29S 34°47' E 138°29'0 0.0
2015-Mar-28 07:29S 34°47' E 138°29'0 0.0
2015-Mar-28 06:32S 34°47' E 138°29'0 0.0
2015-Mar-28 05:32S 34°47' E 138°29'0 0.0
2015-Mar-28 04:29S 34°47' E 138°29'0 0.0
2015-Mar-28 03:23S 34°47' E 138°29'0 0.0
2015-Mar-28 02:14S 34°47' E 138°29'0 0.0
2015-Mar-28 01:26S 34°47' E 138°29'0 0.0
2015-Mar-28 00:20S 34°47' E 138°29'0 0.0
2015-Mar-27 23:32S 34°47' E 138°29'0 0.0
2015-Mar-27 22:32S 34°47' E 138°29'0 0.0
2015-Mar-27 21:32S 34°47' E 138°29'1 1.5
2015-Mar-27 20:33S 34°47' E 138°27'1010.2
2015-Mar-27 19:33S 34°54' E 138°17'1616.0
2015-Mar-27 18:33S 35°07' E 138°08'1616.2
2015-Mar-27 17:33S 35°23' E 138°02'25215.4
2015-Mar-27 01:09S 38°23' E 141°44'1118.6
2015-Mar-27 00:32S 38°31' E 141°54'2020.0
2015-Mar-26 23:33S 38°44' E 142°12'1717.4
2015-Mar-26 22:33S 38°53' E 142°31'143 4.2
2015-Mar-25 12:16S 39°12' E 145°34'1419.0
2015-Mar-25 11:33S 39°20' E 145°48'1919.0
2015-Mar-25 10:33S 39°32' E 146°08'1918.6
2015-Mar-25 09:34S 39°43' E 146°27'12322.9
2015-Mar-25 04:10S 40°53' E 148°40'2739.9
2015-Mar-25 03:29S 41°00' E 149°15'30 9.3
2015-Mar-25 00:14S 41°08' E 149°53'4614.8
2015-Mar-24 21:08S 41°20' E 150°53'  

Dump ship's entire track history